createdAt,value
2022-12-19T00:00:18.664Z,28.50
2022-12-19T00:03:21.946Z,27.13
2022-12-19T00:06:25.706Z,28.67
2022-12-19T00:09:29.195Z,25.93
2022-12-19T00:12:33.779Z,25.43
2022-12-19T00:15:37.239Z,27.07
2022-12-19T00:18:41.000Z,25.07
2022-12-19T00:21:43.986Z,26.60
2022-12-19T00:24:47.028Z,26.43
2022-12-19T00:27:51.526Z,23.53
2022-12-19T00:30:55.225Z,25.50
2022-12-19T00:34:00.222Z,24.60
2022-12-19T00:37:03.333Z,24.57
2022-12-19T00:40:07.956Z,23.10
2022-12-19T00:43:12.352Z,24.00
2022-12-19T00:46:17.037Z,22.93
2022-12-19T00:49:20.102Z,22.57
2022-12-19T00:52:23.103Z,21.83
2022-12-19T00:55:26.590Z,21.03
2022-12-19T00:58:35.188Z,23.50
2022-12-19T01:01:41.347Z,20.80
2022-12-19T01:04:44.843Z,20.80
2022-12-19T01:07:47.902Z,21.30
2022-12-19T01:10:51.424Z,19.40
2022-12-19T01:13:54.903Z,20.67
2022-12-19T01:16:57.970Z,21.23
2022-12-19T01:20:00.945Z,20.60
2022-12-19T01:23:03.952Z,19.50
2022-12-19T01:26:07.064Z,19.13
2022-12-19T01:29:11.432Z,19.60
2022-12-19T01:32:14.387Z,18.27
2022-12-19T01:35:21.590Z,18.37
2022-12-19T01:38:25.224Z,18.53
2022-12-19T01:41:28.374Z,17.60
2022-12-19T01:44:35.461Z,18.70
2022-12-19T01:47:46.731Z,17.67
2022-12-19T01:51:02.011Z,17.87
2022-12-19T01:54:09.040Z,16.07
2022-12-19T01:57:17.048Z,17.47
2022-12-19T02:00:21.721Z,16.10
2022-12-19T02:03:28.695Z,17.30
2022-12-19T02:06:32.711Z,16.40
2022-12-19T02:09:37.239Z,14.97
2022-12-19T02:12:44.369Z,14.87
2022-12-19T02:15:54.978Z,15.40
2022-12-19T02:19:08.804Z,15.43
2022-12-19T02:22:19.401Z,15.60
2022-12-19T02:25:47.587Z,15.43
2022-12-19T02:29:06.762Z,14.50
2022-12-19T02:32:20.918Z,14.97
2022-12-19T02:35:32.256Z,13.77
2022-12-19T02:38:41.228Z,13.93
2022-12-19T02:41:50.253Z,14.07
2022-12-19T02:44:53.999Z,13.33
2022-12-19T02:48:03.291Z,13.70
2022-12-19T02:51:08.870Z,13.50
2022-12-19T02:54:12.328Z,13.77
2022-12-19T02:57:21.492Z,13.90
2022-12-19T03:00:27.272Z,12.47
2022-12-19T03:03:39.358Z,13.43
2022-12-19T03:06:49.581Z,13.13
2022-12-19T03:09:59.915Z,12.30
2022-12-19T03:13:09.000Z,12.53
2022-12-19T03:16:15.416Z,11.70
2022-12-19T03:19:20.221Z,12.23
2022-12-19T03:22:23.608Z,12.10
2022-12-19T03:25:27.366Z,11.90
2022-12-19T03:28:38.241Z,12.37
2022-12-19T03:31:42.563Z,12.13
2022-12-19T03:34:53.447Z,10.87
2022-12-19T03:37:59.099Z,12.27
2022-12-19T03:41:04.373Z,11.60
2022-12-19T03:44:08.465Z,11.80
2022-12-19T03:47:18.734Z,12.23
2022-12-19T03:50:26.192Z,11.43
2022-12-19T03:53:42.932Z,11.60
2022-12-19T03:56:52.958Z,10.83
2022-12-19T04:00:03.326Z,10.30
2022-12-19T04:03:07.840Z,10.23
2022-12-19T04:06:14.331Z,10.03
2022-12-19T04:09:22.700Z,10.73
2022-12-19T04:12:31.717Z,10.07
2022-12-19T04:15:46.533Z,11.40
2022-12-19T04:18:55.259Z,10.70
2022-12-19T04:22:06.475Z,9.97
2022-12-19T04:25:13.579Z,9.97
2022-12-19T04:28:20.032Z,10.07
2022-12-19T04:31:24.438Z,10.00
2022-12-19T04:34:27.486Z,10.27
2022-12-19T04:37:32.858Z,9.73
2022-12-19T04:40:40.878Z,10.27
2022-12-19T04:43:44.633Z,9.53
2022-12-19T04:46:47.782Z,9.93
2022-12-19T04:49:50.853Z,9.10
2022-12-19T04:52:58.110Z,9.60
2022-12-19T04:56:04.646Z,9.93
2022-12-19T04:59:07.694Z,12.00
2022-12-19T05:02:10.794Z,11.40
2022-12-19T05:05:13.947Z,10.57
2022-12-19T05:08:18.399Z,10.37
2022-12-19T05:11:21.433Z,10.27
2022-12-19T05:14:24.574Z,9.50
2022-12-19T05:17:29.159Z,9.43
2022-12-19T05:20:32.235Z,10.17
2022-12-19T05:23:36.809Z,10.90
2022-12-19T05:26:39.865Z,10.00
2022-12-19T05:29:42.927Z,9.57
2022-12-19T05:32:45.926Z,9.70
2022-12-19T05:35:49.502Z,9.87
2022-12-19T05:38:53.993Z,9.07
2022-12-19T05:41:56.971Z,9.27
2022-12-19T05:45:00.324Z,10.00
2022-12-19T05:48:03.381Z,9.87
2022-12-19T05:51:06.723Z,8.87
2022-12-19T05:54:11.152Z,8.77
2022-12-19T05:57:14.166Z,8.47
2022-12-19T06:00:17.796Z,9.60
2022-12-19T06:03:20.867Z,9.47
2022-12-19T06:06:26.178Z,8.70
2022-12-19T06:09:30.627Z,8.93
2022-12-19T06:12:33.989Z,9.20
2022-12-19T06:15:37.003Z,9.37
2022-12-19T06:18:44.311Z,9.00
2022-12-19T06:21:48.689Z,9.27
2022-12-19T06:24:53.332Z,8.80
2022-12-19T06:27:56.463Z,8.60
2022-12-19T06:31:00.406Z,9.37
2022-12-19T06:34:03.431Z,8.60
2022-12-19T06:37:08.388Z,8.90
2022-12-19T06:40:34.022Z,8.60
2022-12-19T06:43:36.048Z,8.77
2022-12-19T06:46:39.184Z,8.43
2022-12-19T06:49:42.197Z,8.00
2022-12-19T06:52:45.345Z,9.37
2022-12-19T06:55:51.647Z,8.27
2022-12-19T06:58:54.947Z,8.63
2022-12-19T07:02:01.276Z,8.40
2022-12-19T07:05:08.609Z,9.47
2022-12-19T07:08:12.714Z,9.87
2022-12-19T07:11:17.195Z,8.90
2022-12-19T07:14:20.206Z,8.57
2022-12-19T07:17:25.568Z,8.90
2022-12-19T07:20:30.159Z,8.33
2022-12-19T07:23:33.486Z,8.40
2022-12-19T07:26:38.046Z,8.97
2022-12-19T07:29:41.022Z,8.43
2022-12-19T07:32:44.048Z,8.37
2022-12-19T07:35:47.042Z,9.20
2022-12-19T07:38:50.734Z,8.67
2022-12-19T07:41:55.168Z,10.50
2022-12-19T07:44:58.260Z,8.73
2022-12-19T07:48:02.330Z,9.20
2022-12-19T07:51:05.717Z,9.70
2022-12-19T07:54:08.819Z,8.30
2022-12-19T07:57:13.341Z,9.30
2022-12-19T08:00:16.943Z,9.10
2022-12-19T08:03:20.426Z,9.57
2022-12-19T08:06:24.705Z,9.60
2022-12-19T08:09:28.463Z,9.03
2022-12-19T08:12:34.476Z,8.67
2022-12-19T08:15:37.484Z,9.40
2022-12-19T08:18:40.535Z,9.33
2022-12-19T08:21:43.567Z,10.00
2022-12-19T08:24:46.607Z,9.20
2022-12-19T08:27:51.063Z,9.57
2022-12-19T08:30:54.364Z,9.03
2022-12-19T08:33:58.738Z,9.10
2022-12-19T08:37:01.791Z,10.03
2022-12-19T08:40:05.412Z,8.73
2022-12-19T08:43:09.891Z,9.70
2022-12-19T08:46:13.075Z,9.30
2022-12-19T08:49:16.127Z,10.13
2022-12-19T08:52:19.133Z,9.10
2022-12-19T08:55:22.162Z,9.80
2022-12-19T08:58:28.129Z,9.30
2022-12-19T09:01:31.576Z,9.07
2022-12-19T09:05:59.655Z,8.83
2022-12-19T09:07:57.813Z,8.70
2022-12-19T09:11:01.706Z,9.93
2022-12-19T09:14:06.214Z,9.87
2022-12-19T09:17:09.481Z,9.47
2022-12-19T09:20:15.799Z,9.37
2022-12-19T09:23:23.113Z,9.17
2022-12-19T09:26:28.374Z,10.00
2022-12-19T09:29:38.012Z,9.17
2022-12-19T09:32:41.155Z,9.47
2022-12-19T09:35:51.323Z,9.43
2022-12-19T09:38:56.612Z,8.67
2022-12-19T09:42:34.163Z,9.83
2022-12-19T09:45:55.962Z,8.73
2022-12-19T09:48:59.907Z,8.60
2022-12-19T09:52:07.808Z,8.93
2022-12-19T09:55:20.408Z,10.60
2022-12-19T09:58:33.639Z,9.40
2022-12-19T10:01:46.176Z,8.93
2022-12-19T10:04:58.877Z,9.60
2022-12-19T10:08:18.823Z,8.97
2022-12-19T10:12:47.551Z,8.23
2022-12-19T10:15:07.447Z,9.37
2022-12-19T10:18:32.971Z,8.47
2022-12-19T10:25:22.132Z,7.90
2022-12-19T10:28:46.488Z,9.07
2022-12-19T10:31:57.109Z,8.40
2022-12-19T10:35:02.037Z,9.77
2022-12-19T10:38:20.545Z,8.40
2022-12-19T10:41:27.188Z,9.17
2022-12-19T10:44:35.792Z,9.10
2022-12-19T10:47:38.963Z,9.63
2022-12-19T10:50:43.385Z,8.13
2022-12-19T10:53:54.931Z,8.13
2022-12-19T10:57:19.377Z,8.60
2022-12-19T11:00:22.528Z,8.37
2022-12-19T11:03:26.075Z,8.27
2022-12-19T11:06:52.605Z,8.90
2022-12-19T11:10:35.723Z,8.50
2022-12-19T11:19:06.127Z,8.40
2022-12-19T11:23:32.175Z,9.47
2022-12-19T11:29:19.827Z,8.47
2022-12-19T11:29:40.285Z,8.27
2022-12-19T11:30:48.176Z,8.20
2022-12-19T11:32:20.549Z,8.87
2022-12-19T11:34:28.753Z,8.87
2022-12-19T11:37:40.370Z,7.80
2022-12-19T11:40:49.425Z,7.37
2022-12-19T11:43:58.925Z,8.23
2022-12-19T11:47:13.676Z,7.40
2022-12-19T11:50:24.096Z,7.53
2022-12-19T11:53:31.610Z,8.30
2022-12-19T11:56:37.086Z,8.20
2022-12-19T11:59:41.845Z,7.43
2022-12-19T12:03:15.698Z,8.00
2022-12-19T12:06:19.612Z,7.63
2022-12-19T12:11:05.391Z,7.27
2022-12-19T12:24:40.358Z,7.50
2022-12-19T12:31:05.781Z,7.40
2022-12-19T12:31:30.964Z,8.20
2022-12-19T12:31:40.354Z,7.10
2022-12-19T12:31:46.435Z,7.47
2022-12-19T12:35:33.438Z,7.43
2022-12-19T12:38:31.625Z,7.30
2022-12-19T12:42:02.626Z,6.90
2022-12-19T12:45:21.221Z,7.07
2022-12-19T12:48:29.189Z,7.20
2022-12-19T12:51:34.391Z,7.03
2022-12-19T12:54:41.778Z,6.67
2022-12-19T12:57:44.990Z,6.97
2022-12-19T13:01:10.189Z,6.80
2022-12-19T13:04:26.983Z,6.53
2022-12-19T13:07:41.369Z,6.30
2022-12-19T13:10:55.509Z,7.20
2022-12-19T13:13:59.176Z,6.53
2022-12-19T13:17:03.056Z,6.50
2022-12-19T13:20:39.386Z,6.30
2022-12-19T13:23:52.513Z,6.00
2022-12-19T13:26:55.600Z,6.50
2022-12-19T13:30:14.795Z,7.23
2022-12-19T13:33:17.855Z,6.57
2022-12-19T13:39:50.572Z,5.97
2022-12-19T13:40:32.633Z,6.20
2022-12-19T13:43:48.955Z,6.50
2022-12-19T13:46:52.174Z,6.37
2022-12-19T13:49:55.901Z,5.93
2022-12-19T13:52:59.212Z,6.70
2022-12-19T13:56:06.288Z,6.00
2022-12-19T13:59:10.797Z,6.47
2022-12-19T14:02:22.134Z,6.30
2022-12-19T14:06:09.991Z,6.47
2022-12-19T14:09:25.147Z,6.00
2022-12-19T14:13:47.303Z,5.97
2022-12-19T14:16:01.126Z,6.40
2022-12-19T14:19:04.409Z,6.90
2022-12-19T14:22:22.705Z,6.67
2022-12-19T14:28:13.972Z,6.00
2022-12-19T14:29:01.224Z,6.10
2022-12-19T14:33:39.312Z,6.40
2022-12-19T14:36:12.361Z,6.40
2022-12-19T14:39:27.800Z,6.63
2022-12-19T14:43:55.556Z,5.90
2022-12-19T14:54:13.315Z,6.03
2022-12-19T14:54:15.601Z,6.37
2022-12-19T14:54:40.199Z,6.20
2022-12-19T14:57:01.986Z,6.67
2022-12-19T15:01:07.325Z,5.23
2022-12-19T15:04:48.887Z,5.73
2022-12-19T15:07:19.509Z,6.27
2022-12-19T15:11:02.550Z,6.57
2022-12-19T15:14:51.002Z,6.53
2022-12-19T15:17:22.140Z,6.20
2022-12-19T15:20:26.714Z,6.27
2022-12-19T15:23:30.261Z,6.40
2022-12-19T15:26:35.674Z,6.90
2022-12-19T15:29:38.722Z,6.80
2022-12-19T15:32:41.733Z,5.90
2022-12-19T15:35:46.230Z,6.10
2022-12-19T15:38:49.455Z,6.57
2022-12-19T15:41:54.761Z,6.80
2022-12-19T15:45:00.149Z,7.17
2022-12-19T15:48:03.345Z,6.70
2022-12-19T15:51:11.899Z,6.50
2022-12-19T15:54:47.254Z,6.47
2022-12-19T15:57:42.060Z,6.60
2022-12-19T16:00:52.232Z,5.80
2022-12-19T16:03:57.376Z,6.60
2022-12-19T16:07:01.952Z,6.90
2022-12-19T16:10:05.927Z,6.80
2022-12-19T16:13:17.512Z,7.00
2022-12-19T16:16:20.622Z,7.23
2022-12-19T16:19:29.270Z,7.30
2022-12-19T16:22:33.730Z,7.83
2022-12-19T16:25:40.046Z,8.37
2022-12-19T16:28:43.286Z,7.80
2022-12-19T16:31:46.445Z,7.60
2022-12-19T16:34:49.552Z,7.57
2022-12-19T16:37:53.939Z,7.70
2022-12-19T16:40:58.687Z,7.83
2022-12-19T16:44:02.869Z,8.50
2022-12-19T16:47:13.914Z,8.40
2022-12-19T16:50:20.523Z,8.40
2022-12-19T16:53:25.504Z,8.00
2022-12-19T16:56:32.031Z,8.77
2022-12-19T16:59:40.207Z,8.57
2022-12-19T17:02:50.218Z,8.60
2022-12-19T17:05:53.383Z,8.47
2022-12-19T17:08:57.766Z,9.20
2022-12-19T17:12:02.842Z,9.17
2022-12-19T17:15:09.026Z,9.77
2022-12-19T17:18:16.106Z,9.57
2022-12-19T17:21:22.016Z,9.47
2022-12-19T17:24:26.471Z,10.03
2022-12-19T17:27:29.464Z,9.63
2022-12-19T17:30:32.490Z,9.40
2022-12-19T17:33:37.900Z,10.00
2022-12-19T17:36:40.958Z,10.40
2022-12-19T17:39:45.446Z,10.20
2022-12-19T17:42:49.031Z,10.90
2022-12-19T17:45:52.650Z,10.00
2022-12-19T17:48:55.695Z,11.07
2022-12-19T17:52:00.979Z,10.77
2022-12-19T17:55:19.899Z,12.93
2022-12-19T17:58:23.001Z,13.33
2022-12-19T18:01:26.524Z,13.77
2022-12-19T18:04:31.677Z,13.10
2022-12-19T18:07:34.868Z,13.40
2022-12-19T18:10:40.476Z,12.80
2022-12-19T18:13:43.484Z,13.23
2022-12-19T18:16:47.460Z,12.83
2022-12-19T18:19:50.617Z,11.87
2022-12-19T18:22:54.327Z,11.80
2022-12-19T18:26:01.836Z,11.97
2022-12-19T18:29:05.836Z,11.63
2022-12-19T18:32:18.229Z,11.60
2022-12-19T18:35:23.837Z,11.60
2022-12-19T18:38:27.244Z,53.30
2022-12-19T18:41:31.617Z,37.43
2022-12-19T18:44:34.693Z,31.17
2022-12-19T18:47:37.790Z,27.73
2022-12-19T18:50:41.219Z,27.40
2022-12-19T18:53:44.841Z,30.33
2022-12-19T18:56:49.827Z,28.17
2022-12-19T18:59:52.837Z,30.40
2022-12-19T19:02:58.615Z,30.77
2022-12-19T19:06:03.838Z,30.60
2022-12-19T19:09:14.499Z,30.50
2022-12-19T19:12:18.978Z,29.50
2022-12-19T19:15:24.042Z,32.03
2022-12-19T19:18:31.265Z,28.93
2022-12-19T19:21:36.169Z,30.30
2022-12-19T19:24:39.196Z,31.10
2022-12-19T19:27:43.670Z,36.60
2022-12-19T19:30:47.029Z,43.57
2022-12-19T19:33:53.418Z,38.77
2022-12-19T19:37:00.267Z,36.73
2022-12-19T19:40:03.354Z,35.70
2022-12-19T19:43:08.331Z,34.70
2022-12-19T19:46:11.482Z,32.57
2022-12-19T19:49:14.558Z,45.97
2022-12-19T19:52:17.655Z,34.77
2022-12-19T19:55:20.775Z,31.17
2022-12-19T19:58:25.273Z,37.77
2022-12-19T20:01:28.624Z,125.23
2022-12-19T20:04:31.889Z,38.97
2022-12-19T20:07:35.084Z,42.97
2022-12-19T20:10:38.247Z,42.40
2022-12-19T20:13:42.735Z,38.33
2022-12-19T20:16:45.919Z,38.83
2022-12-19T20:19:49.245Z,39.47
2022-12-19T20:22:52.410Z,36.00
2022-12-19T20:25:55.448Z,32.10
2022-12-19T20:28:59.966Z,34.77
2022-12-19T20:32:02.960Z,34.97
2022-12-19T20:35:13.990Z,29.53
2022-12-19T20:38:18.165Z,28.80
2022-12-19T20:41:21.327Z,28.17
2022-12-19T20:44:25.831Z,26.87
2022-12-19T20:47:28.878Z,27.20
2022-12-19T20:50:31.878Z,24.33
2022-12-19T20:53:36.221Z,26.13
2022-12-19T20:56:39.619Z,24.27
2022-12-19T20:59:44.198Z,23.40
2022-12-19T21:03:25.871Z,22.97
2022-12-19T21:06:11.964Z,21.20
2022-12-19T21:09:15.116Z,19.30
2022-12-19T21:12:18.147Z,17.90
2022-12-19T21:15:22.633Z,18.90
2022-12-19T21:18:25.887Z,20.17
2022-12-19T21:21:28.934Z,18.03
2022-12-19T21:24:33.058Z,17.70
2022-12-19T21:27:36.042Z,16.60
2022-12-19T21:30:40.490Z,15.47
2022-12-19T21:33:43.581Z,18.03
2022-12-19T21:36:46.687Z,16.73
2022-12-19T21:39:49.751Z,17.57
2022-12-19T21:42:52.813Z,19.60
2022-12-19T21:46:10.015Z,18.87
2022-12-19T21:49:13.115Z,19.53
2022-12-19T21:52:16.153Z,18.77
2022-12-19T21:55:19.355Z,19.23
2022-12-19T21:58:22.405Z,18.03
2022-12-19T22:01:27.744Z,18.23
2022-12-19T22:04:31.463Z,17.40
2022-12-19T22:07:34.640Z,17.97
2022-12-19T22:10:39.590Z,17.53
2022-12-19T22:13:42.897Z,16.50
2022-12-19T22:16:47.376Z,16.20
2022-12-19T22:19:50.539Z,15.90
2022-12-19T22:22:53.639Z,15.37
2022-12-19T22:26:07.343Z,16.13
2022-12-19T22:29:12.162Z,14.63
2022-12-19T22:32:17.754Z,13.17
2022-12-19T22:35:20.936Z,15.40
2022-12-19T22:38:24.022Z,14.33
2022-12-19T22:41:28.220Z,14.67
2022-12-19T22:44:31.235Z,14.20
2022-12-19T22:47:35.862Z,13.93
2022-12-19T22:50:45.011Z,13.80
2022-12-19T22:53:49.254Z,12.13
2022-12-19T22:56:52.868Z,13.00
2022-12-19T22:59:55.879Z,12.80
2022-12-19T23:03:00.617Z,12.50
2022-12-19T23:06:03.778Z,12.40
2022-12-19T23:09:08.157Z,11.70
2022-12-19T23:12:11.225Z,10.57
2022-12-19T23:15:14.258Z,11.33
2022-12-19T23:18:18.698Z,10.13
2022-12-19T23:21:24.328Z,10.53
2022-12-19T23:24:27.354Z,10.90
2022-12-19T23:27:30.389Z,10.00
2022-12-19T23:30:33.732Z,10.70
2022-12-19T23:33:38.416Z,10.17
2022-12-19T23:40:06.497Z,9.47
2022-12-19T23:43:09.592Z,9.37
2022-12-19T23:46:17.058Z,10.63
2022-12-19T23:49:21.574Z,9.30
2022-12-19T23:52:24.575Z,9.07
2022-12-19T23:55:27.939Z,9.53
2022-12-19T23:58:31.252Z,8.70
